createdAt,value
2019-03-18T00:00:22.966Z,0
2019-03-18T00:01:32.409Z,0
2019-03-18T00:02:42.107Z,0
2019-03-18T00:03:51.795Z,0
2019-03-18T00:05:01.746Z,0
2019-03-18T00:06:11.681Z,0
2019-03-18T00:07:21.618Z,0
2019-03-18T00:08:31.558Z,0
2019-03-18T00:09:41.851Z,0
2019-03-18T00:10:51.783Z,0
2019-03-18T00:12:01.718Z,0
2019-03-18T00:13:11.409Z,0
2019-03-18T00:14:21.351Z,0
2019-03-18T00:15:31.059Z,0
2019-03-18T00:16:40.996Z,0
2019-03-18T00:17:50.937Z,0
2019-03-18T00:19:00.626Z,0
2019-03-18T00:20:10.561Z,0
2019-03-18T00:21:20.506Z,0
2019-03-18T00:22:30.434Z,0
2019-03-18T00:23:40.414Z,0
2019-03-18T00:24:50.104Z,0
2019-03-18T00:26:00.042Z,0
2019-03-18T00:27:09.742Z,0
2019-03-18T00:28:19.179Z,0
2019-03-18T00:29:28.638Z,0
2019-03-18T00:30:38.584Z,0
2019-03-18T00:31:48.545Z,0
2019-03-18T00:32:58.483Z,0
2019-03-18T00:34:10.888Z,0
2019-03-18T00:35:20.828Z,0
2019-03-18T00:36:30.012Z,0
2019-03-18T00:37:39.953Z,0
2019-03-18T00:38:49.896Z,0
2019-03-18T00:39:59.851Z,0
2019-03-18T00:41:09.779Z,0
2019-03-18T00:42:19.730Z,0
2019-03-18T00:43:29.415Z,0
2019-03-18T00:44:39.375Z,0
2019-03-18T00:45:49.327Z,0
2019-03-18T00:46:59.288Z,0
2019-03-18T00:48:08.736Z,0
2019-03-18T00:49:18.686Z,0
2019-03-18T00:50:28.617Z,0
2019-03-18T00:51:38.314Z,0
2019-03-18T00:52:48.261Z,0
2019-03-18T00:53:58.210Z,0
2019-03-18T00:55:08.168Z,0
2019-03-18T00:56:17.873Z,0
2019-03-18T00:57:27.812Z,0
2019-03-18T00:58:37.773Z,0
2019-03-18T00:59:47.470Z,0
2019-03-18T01:00:57.402Z,0
2019-03-18T01:02:07.088Z,0
2019-03-18T01:03:16.790Z,0
2019-03-18T01:04:26.751Z,0
2019-03-18T01:05:36.449Z,0
2019-03-18T01:06:46.401Z,0
2019-03-18T01:07:56.351Z,0
2019-03-18T01:09:06.296Z,0
2019-03-18T01:10:16.080Z,0
2019-03-18T01:11:26.029Z,0
2019-03-18T01:12:35.720Z,0
2019-03-18T01:13:45.678Z,0
2019-03-18T01:14:55.633Z,0
2019-03-18T01:16:05.324Z,0
2019-03-18T01:17:14.770Z,0
2019-03-18T01:18:24.711Z,0
2019-03-18T01:19:34.672Z,0
2019-03-18T01:20:44.612Z,0
2019-03-18T01:21:54.554Z,0
2019-03-18T01:23:04.512Z,0
2019-03-18T01:24:14.481Z,0
2019-03-18T01:25:24.172Z,0
2019-03-18T01:26:33.866Z,0
2019-03-18T01:27:43.318Z,0
2019-03-18T01:28:53.003Z,0
2019-03-18T01:30:02.951Z,0
2019-03-18T01:31:12.650Z,0
2019-03-18T01:32:22.392Z,0
2019-03-18T01:33:31.832Z,0
2019-03-18T01:34:41.788Z,0
2019-03-18T01:35:51.815Z,0
2019-03-18T01:37:01.780Z,0
2019-03-18T01:38:11.465Z,0
2019-03-18T01:39:21.410Z,0
2019-03-18T01:40:31.102Z,0
2019-03-18T01:41:40.554Z,0
2019-03-18T01:42:50.246Z,0
2019-03-18T01:44:00.193Z,0
2019-03-18T01:45:10.206Z,0
2019-03-18T01:46:19.926Z,0
2019-03-18T01:47:29.623Z,0
2019-03-18T01:48:39.569Z,0
2019-03-18T01:49:49.715Z,0
2019-03-18T01:50:59.652Z,0
2019-03-18T01:52:09.367Z,0
2019-03-18T01:53:19.059Z,0
2019-03-18T01:54:29.011Z,0
2019-03-18T01:55:38.702Z,0
2019-03-18T01:56:48.634Z,0
2019-03-18T01:57:58.320Z,0
2019-03-18T01:59:08.003Z,0
2019-03-18T02:00:17.959Z,0
2019-03-18T02:01:27.986Z,0
2019-03-18T02:02:37.674Z,0
2019-03-18T02:03:47.626Z,0
2019-03-18T02:04:57.577Z,0
2019-03-18T02:06:07.510Z,0
2019-03-18T02:07:17.518Z,0
2019-03-18T02:08:27.209Z,0
2019-03-18T02:09:36.906Z,0
2019-03-18T02:10:46.621Z,0
2019-03-18T02:11:56.327Z,0
2019-03-18T02:13:06.268Z,0
2019-03-18T02:14:16.221Z,0
2019-03-18T02:15:26.163Z,0
2019-03-18T02:16:36.109Z,0
2019-03-18T02:17:46.067Z,0
2019-03-18T02:18:56.029Z,0
2019-03-18T02:20:05.982Z,0
2019-03-18T02:21:15.931Z,0
2019-03-18T02:22:25.633Z,0
2019-03-18T02:23:35.310Z,0
2019-03-18T02:24:44.797Z,0
2019-03-18T02:25:54.743Z,0
2019-03-18T02:27:04.443Z,0
2019-03-18T02:28:14.381Z,0
2019-03-18T02:29:24.313Z,0
2019-03-18T02:30:34.043Z,0
2019-03-18T02:31:43.871Z,0
2019-03-18T02:32:53.351Z,0
2019-03-18T02:34:02.563Z,0
2019-03-18T02:35:12.531Z,0
2019-03-18T02:36:22.486Z,0
2019-03-18T02:37:32.195Z,0
2019-03-18T02:38:41.895Z,0
2019-03-18T02:39:51.598Z,0
2019-03-18T02:41:01.077Z,0
2019-03-18T02:42:11.045Z,0
2019-03-18T02:43:20.501Z,0
2019-03-18T02:44:30.203Z,0
2019-03-18T02:45:39.908Z,0
2019-03-18T02:46:49.630Z,0
2019-03-18T02:47:59.585Z,0
2019-03-18T02:49:09.313Z,0
2019-03-18T02:50:19.305Z,0
2019-03-18T02:51:29.266Z,0
2019-03-18T02:52:39.238Z,0
2019-03-18T02:53:48.960Z,0
2019-03-18T02:54:58.427Z,0
2019-03-18T02:56:08.441Z,0
2019-03-18T02:57:18.407Z,0
2019-03-18T02:58:27.859Z,0
2019-03-18T02:59:37.562Z,0
2019-03-18T03:00:47.529Z,0
2019-03-18T03:01:57.237Z,0
2019-03-18T03:03:07.194Z,0
2019-03-18T03:04:17.267Z,0
2019-03-18T03:05:26.976Z,0
2019-03-18T03:06:36.933Z,0
2019-03-18T03:07:46.156Z,0
2019-03-18T03:08:55.937Z,0
2019-03-18T03:10:05.881Z,0
2019-03-18T03:11:15.580Z,0
2019-03-18T03:12:25.535Z,0
2019-03-18T03:13:35.265Z,0
2019-03-18T03:14:45.246Z,0
2019-03-18T03:15:55.242Z,0
2019-03-18T03:17:05.197Z,0
2019-03-18T03:18:14.902Z,0
2019-03-18T03:19:24.931Z,0
2019-03-18T03:20:34.972Z,0
2019-03-18T03:21:44.939Z,0
2019-03-18T03:22:54.657Z,0
2019-03-18T03:24:04.614Z,0
2019-03-18T03:25:14.463Z,0
2019-03-18T03:26:24.175Z,0
2019-03-18T03:27:34.127Z,0
2019-03-18T03:28:44.069Z,0
2019-03-18T03:29:54.034Z,0
2019-03-18T03:31:04.118Z,0
2019-03-18T03:32:13.705Z,0
2019-03-18T03:33:23.478Z,0
2019-03-18T03:34:33.483Z,0
2019-03-18T03:35:42.977Z,0
2019-03-18T03:36:52.442Z,0
2019-03-18T03:38:02.009Z,0
2019-03-18T03:39:11.740Z,0
2019-03-18T03:40:21.776Z,0
2019-03-18T03:41:31.523Z,0
2019-03-18T03:42:41.487Z,0
2019-03-18T03:43:51.226Z,0
2019-03-18T03:45:00.691Z,0
2019-03-18T03:46:10.652Z,0
2019-03-18T03:47:20.619Z,0
2019-03-18T03:48:30.089Z,0
2019-03-18T03:49:39.539Z,0
2019-03-18T03:50:49.509Z,0
2019-03-18T03:51:59.217Z,0
2019-03-18T03:53:08.926Z,0
2019-03-18T03:54:18.644Z,0
2019-03-18T03:55:28.648Z,0
2019-03-18T03:56:38.353Z,0
2019-03-18T03:57:48.311Z,0
2019-03-18T03:58:58.285Z,0
2019-03-18T04:00:08.286Z,0
2019-03-18T04:01:18.257Z,0
2019-03-18T04:02:27.990Z,0
2019-03-18T04:03:45.358Z,0
2019-03-18T04:04:55.058Z,0
2019-03-18T04:06:05.055Z,0
2019-03-18T04:07:15.183Z,0
2019-03-18T04:08:24.931Z,0
2019-03-18T04:09:34.880Z,0
2019-03-18T04:10:44.592Z,0
2019-03-18T04:11:54.290Z,0
2019-03-18T04:13:04.268Z,0
2019-03-18T04:14:13.970Z,0
2019-03-18T04:15:23.675Z,0
2019-03-18T04:16:33.666Z,0
2019-03-18T04:17:58.267Z,0
2019-03-18T04:19:07.990Z,0
2019-03-18T04:20:18.199Z,0
2019-03-18T04:21:27.976Z,0
2019-03-18T04:22:37.185Z,0
2019-03-18T04:23:47.160Z,0
2019-03-18T04:24:56.870Z,0
2019-03-18T04:26:06.563Z,0
2019-03-18T04:27:16.506Z,0
2019-03-18T04:28:26.211Z,0
2019-03-18T04:29:36.177Z,0
2019-03-18T04:30:46.130Z,0
2019-03-18T04:31:56.088Z,0
2019-03-18T04:33:06.025Z,0
2019-03-18T04:34:15.998Z,0
2019-03-18T04:35:25.711Z,0
2019-03-18T04:36:35.679Z,0
2019-03-18T04:37:45.644Z,0
2019-03-18T04:38:55.356Z,0
2019-03-18T04:40:05.300Z,0
2019-03-18T04:41:14.743Z,0
2019-03-18T04:42:24.691Z,0
2019-03-18T04:43:34.369Z,0
2019-03-18T04:44:43.820Z,0
2019-03-18T04:45:53.765Z,0
2019-03-18T04:47:16.123Z,4
2019-03-18T04:48:26.069Z,4
2019-03-18T04:49:35.783Z,4
2019-03-18T04:50:45.733Z,4
2019-03-18T04:51:55.419Z,4
2019-03-18T04:53:05.358Z,8
2019-03-18T04:54:14.851Z,8
2019-03-18T04:55:24.778Z,8
2019-03-18T04:56:34.463Z,8
2019-03-18T04:57:44.410Z,12
2019-03-18T04:58:54.357Z,16
2019-03-18T05:00:04.306Z,16
2019-03-18T05:01:13.503Z,16
2019-03-18T05:02:23.876Z,24
2019-03-18T05:03:33.316Z,28
2019-03-18T05:04:43.005Z,36
2019-03-18T05:05:52.946Z,40
2019-03-18T05:07:02.638Z,44
2019-03-18T05:08:12.083Z,52
2019-03-18T05:09:22.007Z,64
2019-03-18T05:10:31.708Z,72
2019-03-18T05:11:41.657Z,84
2019-03-18T05:12:51.611Z,84
2019-03-18T05:14:01.822Z,96
2019-03-18T05:15:11.822Z,108
2019-03-18T05:16:21.781Z,104
2019-03-18T05:17:34.172Z,100
2019-03-18T05:18:44.043Z,108
2019-03-18T05:19:54.002Z,112
2019-03-18T05:21:03.963Z,116
2019-03-18T05:22:13.924Z,120
2019-03-18T05:23:23.632Z,128
2019-03-18T05:24:33.330Z,152
2019-03-18T05:25:43.262Z,168
2019-03-18T05:26:52.953Z,196
2019-03-18T05:28:02.901Z,208
2019-03-18T05:29:12.843Z,196
2019-03-18T05:30:22.855Z,192
2019-03-18T05:31:32.554Z,184
2019-03-18T05:32:42.500Z,188
2019-03-18T05:33:52.456Z,200
2019-03-18T05:35:02.423Z,200
2019-03-18T05:36:11.885Z,200
2019-03-18T05:37:21.833Z,224
2019-03-18T05:38:31.540Z,236
2019-03-18T05:39:41.242Z,276
2019-03-18T05:40:51.184Z,272
2019-03-18T05:42:00.659Z,276
2019-03-18T05:43:10.718Z,304
2019-03-18T05:44:20.176Z,320
2019-03-18T05:45:29.888Z,360
2019-03-18T05:46:39.833Z,408
2019-03-18T05:47:49.266Z,384
2019-03-18T05:48:58.976Z,380
2019-03-18T05:50:08.687Z,420
2019-03-18T05:51:18.370Z,448
2019-03-18T05:52:28.054Z,436
2019-03-18T05:53:37.779Z,488
2019-03-18T05:54:47.712Z,592
2019-03-18T05:55:57.693Z,744
2019-03-18T05:57:07.646Z,860
2019-03-18T05:58:17.593Z,752
2019-03-18T05:59:27.284Z,648
2019-03-18T06:00:36.986Z,536
2019-03-18T06:01:46.920Z,516
2019-03-18T06:02:56.877Z,508
2019-03-18T06:04:06.319Z,552
2019-03-18T06:05:16.004Z,548
2019-03-18T06:06:25.983Z,604
2019-03-18T06:07:35.936Z,648
2019-03-18T06:08:45.394Z,696
2019-03-18T06:09:55.332Z,848
2019-03-18T06:11:05.036Z,816
2019-03-18T06:12:14.752Z,752
2019-03-18T06:13:24.447Z,736
2019-03-18T06:14:34.392Z,848
2019-03-18T06:15:44.327Z,992
2019-03-18T06:16:54.293Z,1092
2019-03-18T06:18:03.996Z,1040
2019-03-18T06:19:13.938Z,1140
2019-03-18T06:20:23.894Z,1100
2019-03-18T06:21:33.864Z,1140
2019-03-18T06:22:43.805Z,1248
2019-03-18T06:23:53.250Z,1332
2019-03-18T06:25:03.208Z,1420
2019-03-18T06:26:13.149Z,1584
2019-03-18T06:27:23.079Z,1608
2019-03-18T06:28:32.522Z,1548
2019-03-18T06:29:42.476Z,1528
2019-03-18T06:30:52.431Z,1440
2019-03-18T06:32:01.884Z,1268
2019-03-18T06:33:11.326Z,1276
2019-03-18T06:34:20.760Z,1308
2019-03-18T06:35:29.950Z,1172
2019-03-18T06:36:39.898Z,1228
2019-03-18T06:37:49.921Z,1200
2019-03-18T06:38:59.623Z,1152
2019-03-18T06:40:09.574Z,1236
2019-03-18T06:41:19.526Z,1440
2019-03-18T06:42:29.226Z,1508
2019-03-18T06:43:38.947Z,1468
2019-03-18T06:44:48.896Z,1416
2019-03-18T06:45:58.630Z,1416
2019-03-18T06:47:08.583Z,1360
2019-03-18T06:48:18.555Z,1276
2019-03-18T06:49:28.599Z,1528
2019-03-18T06:50:38.334Z,1708
2019-03-18T06:51:48.023Z,1812
2019-03-18T06:52:57.493Z,1976
2019-03-18T06:54:07.201Z,2136
2019-03-18T06:55:17.199Z,1948
2019-03-18T06:56:26.906Z,1976
2019-03-18T06:57:36.365Z,1972
2019-03-18T06:58:45.802Z,2056
2019-03-18T06:59:55.748Z,2204
2019-03-18T07:01:05.697Z,2284
2019-03-18T07:02:14.894Z,2256
2019-03-18T07:03:24.640Z,2432
2019-03-18T07:04:34.346Z,2372
2019-03-18T07:05:46.164Z,2344
2019-03-18T07:06:55.987Z,2492
2019-03-18T07:08:05.959Z,2576
2019-03-18T07:09:15.992Z,2888
2019-03-18T07:10:25.432Z,3204
2019-03-18T07:11:35.396Z,3444
2019-03-18T07:12:45.624Z,3892
2019-03-18T07:13:55.072Z,4252
2019-03-18T07:15:04.922Z,5008
2019-03-18T07:16:14.876Z,5652
2019-03-18T07:17:24.824Z,5776
2019-03-18T07:18:34.798Z,5516
2019-03-18T07:19:44.737Z,5516
2019-03-18T07:20:54.732Z,5764
2019-03-18T07:22:04.445Z,5992
2019-03-18T07:23:14.421Z,6156
2019-03-18T07:24:24.400Z,6132
2019-03-18T07:25:34.430Z,5240
2019-03-18T07:26:44.392Z,5788
2019-03-18T07:27:54.050Z,5232
2019-03-18T07:29:03.756Z,5020
2019-03-18T07:30:13.464Z,5028
2019-03-18T07:31:22.927Z,5212
2019-03-18T07:32:32.679Z,5064
2019-03-18T07:33:42.124Z,4760
2019-03-18T07:34:51.824Z,4824
2019-03-18T07:36:01.774Z,4924
2019-03-18T07:37:11.269Z,5248
2019-03-18T07:38:21.249Z,5572
2019-03-18T07:39:30.961Z,6128
2019-03-18T07:40:40.749Z,6464
2019-03-18T07:41:50.704Z,6568
2019-03-18T07:43:00.734Z,6736
2019-03-18T07:44:10.693Z,6840
2019-03-18T07:45:23.186Z,6740
2019-03-18T07:46:33.155Z,6744
2019-03-18T07:47:43.098Z,7136
2019-03-18T07:48:53.289Z,7452
2019-03-18T07:50:03.218Z,7512
2019-03-18T07:51:12.948Z,7372
2019-03-18T07:52:24.131Z,7340
2019-03-18T07:53:34.152Z,7592
2019-03-18T07:54:44.169Z,7520
2019-03-18T07:55:53.884Z,7552
2019-03-18T07:57:03.926Z,7972
2019-03-18T07:58:13.972Z,8116
2019-03-18T07:59:23.439Z,8228
2019-03-18T08:00:33.394Z,8444
2019-03-18T08:01:43.468Z,8684
2019-03-18T08:02:53.473Z,8392
2019-03-18T08:04:03.678Z,8516
2019-03-18T08:05:13.649Z,8416
2019-03-18T08:06:23.103Z,8116
2019-03-18T08:07:33.127Z,7492
2019-03-18T08:08:43.626Z,6820
2019-03-18T08:09:53.624Z,6268
2019-03-18T08:11:03.581Z,6036
2019-03-18T08:12:13.534Z,5732
2019-03-18T08:13:23.305Z,5904
2019-03-18T08:14:33.281Z,6260
2019-03-18T08:15:43.234Z,6808
2019-03-18T08:16:53.467Z,6328
2019-03-18T08:18:03.193Z,6412
2019-03-18T08:19:12.919Z,6644
2019-03-18T08:20:22.621Z,6532
2019-03-18T08:21:32.622Z,6252
2019-03-18T08:22:42.114Z,6616
2019-03-18T08:23:51.860Z,6908
2019-03-18T08:25:01.817Z,6924
2019-03-18T08:26:11.776Z,7196
2019-03-18T08:27:21.503Z,7268
2019-03-18T08:28:31.480Z,7136
2019-03-18T08:29:41.441Z,6928
2019-03-18T08:30:51.421Z,6008
2019-03-18T08:32:01.412Z,5836
2019-03-18T08:33:11.388Z,7248
2019-03-18T08:34:21.338Z,6812
2019-03-18T08:35:31.367Z,5668
2019-03-18T08:36:40.808Z,4868
2019-03-18T08:37:50.779Z,4732
2019-03-18T08:39:02.597Z,5040
2019-03-18T08:40:12.047Z,4924
2019-03-18T08:41:22.018Z,4632
2019-03-18T08:42:31.707Z,4152
2019-03-18T08:43:41.397Z,4668
2019-03-18T08:44:50.860Z,5412
2019-03-18T08:46:00.846Z,5580
2019-03-18T08:47:10.299Z,5384
2019-03-18T08:48:20.282Z,4980
2019-03-18T08:49:29.987Z,4280
2019-03-18T08:50:39.688Z,4628
2019-03-18T08:51:49.407Z,5044
2019-03-18T08:52:58.603Z,5116
2019-03-18T08:54:08.611Z,4972
2019-03-18T08:55:18.571Z,4920
2019-03-18T08:56:29.619Z,5704
2019-03-18T08:57:39.721Z,5972
2019-03-18T08:58:49.695Z,6152
2019-03-18T08:59:59.653Z,6848
2019-03-18T09:01:09.626Z,7488
2019-03-18T09:02:19.580Z,7184
2019-03-18T09:03:29.535Z,6964
2019-03-18T09:04:39.329Z,5932
2019-03-18T09:05:49.305Z,5940
2019-03-18T09:06:59.276Z,5564
2019-03-18T09:08:09.318Z,4864
2019-03-18T09:09:19.299Z,5112
2019-03-18T09:10:29.273Z,5048
2019-03-18T09:11:38.985Z,5460
2019-03-18T09:12:48.938Z,4780
2019-03-18T09:13:58.921Z,4112
2019-03-18T09:15:08.639Z,4524
2019-03-18T09:16:18.357Z,5200
2019-03-18T09:17:28.328Z,5280
2019-03-18T09:18:38.067Z,5868
2019-03-18T09:19:47.864Z,6928
2019-03-18T09:20:57.613Z,7832
2019-03-18T09:22:07.621Z,9068
2019-03-18T09:23:17.348Z,9348
2019-03-18T09:24:27.040Z,9308
2019-03-18T09:25:37.012Z,9748
2019-03-18T09:26:46.981Z,10216
2019-03-18T09:28:09.199Z,11368
2019-03-18T09:29:18.902Z,11688
2019-03-18T09:30:28.608Z,10488
2019-03-18T09:31:38.569Z,10488
2019-03-18T09:32:48.535Z,11428
2019-03-18T09:33:58.252Z,17248
2019-03-18T09:35:07.947Z,18496
2019-03-18T09:36:18.083Z,16236
2019-03-18T09:37:28.018Z,16200
2019-03-18T09:38:37.979Z,14764
2019-03-18T09:39:47.687Z,13928
2019-03-18T09:40:57.671Z,13304
2019-03-18T09:42:07.391Z,12044
2019-03-18T09:43:17.338Z,12144
2019-03-18T09:44:27.058Z,12732
2019-03-18T09:45:37.007Z,16004
2019-03-18T09:46:47.019Z,18528
2019-03-18T09:47:58.692Z,20544
2019-03-18T09:49:20.511Z,16500
2019-03-18T09:50:30.375Z,18624
2019-03-18T09:51:40.336Z,17312
2019-03-18T09:52:50.062Z,20736
2019-03-18T09:53:59.775Z,13792
2019-03-18T09:55:09.484Z,14296
2019-03-18T09:56:19.441Z,14740
2019-03-18T09:57:33.411Z,13676
2019-03-18T09:58:43.442Z,12252
2019-03-18T09:59:53.469Z,10240
2019-03-18T10:01:03.400Z,8160
2019-03-18T10:02:13.385Z,7088
2019-03-18T10:03:23.078Z,6588
2019-03-18T10:04:33.235Z,5548
2019-03-18T10:05:46.276Z,6124
2019-03-18T10:06:56.207Z,5872
2019-03-18T10:08:06.245Z,4844
2019-03-18T10:09:16.204Z,4808
2019-03-18T10:10:25.713Z,6632
2019-03-18T10:11:35.670Z,10036
2019-03-18T10:12:45.382Z,12208
2019-03-18T10:13:55.079Z,12228
2019-03-18T10:15:04.771Z,9760
2019-03-18T10:16:14.719Z,11208
2019-03-18T10:17:24.665Z,11608
2019-03-18T10:18:34.625Z,12976
2019-03-18T10:19:44.559Z,13808
2019-03-18T10:20:54.286Z,12988
2019-03-18T10:22:03.981Z,11848
2019-03-18T10:23:13.683Z,11920
2019-03-18T10:24:23.130Z,11224
2019-03-18T10:25:33.101Z,9352
2019-03-18T10:26:43.047Z,9724
2019-03-18T10:27:53.017Z,10952
2019-03-18T10:29:02.954Z,10760
2019-03-18T10:30:12.904Z,9088
2019-03-18T10:31:22.876Z,7896
2019-03-18T10:32:32.830Z,8332
2019-03-18T10:33:44.764Z,11512
2019-03-18T10:34:54.208Z,15560
2019-03-18T10:36:03.901Z,18112
2019-03-18T10:37:13.612Z,46080
2019-03-18T10:38:23.312Z,30624
2019-03-18T10:39:33.263Z,21088
2019-03-18T10:40:42.713Z,22848
2019-03-18T10:41:52.431Z,21568
2019-03-18T10:43:02.219Z,15868
2019-03-18T10:44:11.663Z,17632
2019-03-18T10:45:21.655Z,18304
2019-03-18T10:46:33.735Z,19424
2019-03-18T10:47:43.709Z,18912
2019-03-18T10:48:53.447Z,23232
2019-03-18T10:50:03.403Z,18656
2019-03-18T10:51:13.365Z,18496
2019-03-18T10:52:23.432Z,19136
2019-03-18T10:53:33.396Z,23808
2019-03-18T10:54:43.223Z,26464
2019-03-18T10:55:52.716Z,23136
2019-03-18T10:57:14.653Z,21760
2019-03-18T10:58:24.904Z,17472
2019-03-18T10:59:34.879Z,16704
2019-03-18T11:00:44.840Z,15696
2019-03-18T11:01:54.807Z,15828
2019-03-18T11:03:04.985Z,12952
2019-03-18T11:04:14.713Z,12032
2019-03-18T11:05:24.697Z,13368
2019-03-18T11:06:34.666Z,15508
2019-03-18T11:07:44.631Z,20992
2019-03-18T11:08:54.315Z,36544
2019-03-18T11:10:04.267Z,23456
2019-03-18T11:11:14.242Z,23264
2019-03-18T11:12:23.947Z,15352
2019-03-18T11:13:33.897Z,19296
2019-03-18T11:14:43.600Z,14936
2019-03-18T11:15:53.363Z,14268
2019-03-18T11:17:03.376Z,12860
2019-03-18T11:18:13.324Z,14540
2019-03-18T11:19:23.020Z,18176
2019-03-18T11:20:33.041Z,22624
2019-03-18T11:21:43.021Z,33184
2019-03-18T11:22:53.006Z,74208
2019-03-18T11:24:02.964Z,35488
2019-03-18T11:25:12.936Z,22880
2019-03-18T11:26:22.652Z,25344
2019-03-18T11:27:32.418Z,30880
2019-03-18T11:28:42.372Z,29184
2019-03-18T11:29:52.328Z,15596
2019-03-18T11:31:02.284Z,14996
2019-03-18T11:32:12.273Z,16244
2019-03-18T11:33:21.726Z,18752
2019-03-18T11:34:31.446Z,30272
2019-03-18T11:35:40.883Z,18016
2019-03-18T11:36:50.583Z,17504
2019-03-18T11:38:00.539Z,14152
2019-03-18T11:39:10.479Z,10416
2019-03-18T11:40:20.443Z,11140
2019-03-18T11:41:30.147Z,13092
2019-03-18T11:42:39.881Z,9728
2019-03-18T11:43:49.843Z,9656
2019-03-18T11:44:59.542Z,12012
2019-03-18T11:46:09.266Z,14892
2019-03-18T11:47:18.717Z,66880
2019-03-18T11:48:28.674Z,15360
2019-03-18T11:49:46.921Z,13504
2019-03-18T11:50:56.985Z,13412
2019-03-18T11:52:06.951Z,13728
2019-03-18T11:53:21.922Z,14124
2019-03-18T11:54:32.250Z,13400
2019-03-18T11:55:42.311Z,12936
2019-03-18T11:56:52.028Z,12896
2019-03-18T11:58:02.001Z,14704
2019-03-18T11:59:11.953Z,15556
2019-03-18T12:00:21.674Z,14580
2019-03-18T12:01:31.649Z,13484
2019-03-18T12:02:41.716Z,12152
2019-03-18T12:03:51.167Z,11684
2019-03-18T12:05:02.512Z,11836
2019-03-18T12:06:11.986Z,13460
2019-03-18T12:07:21.984Z,15356
2019-03-18T12:08:31.943Z,17760
2019-03-18T12:09:41.900Z,21120
2019-03-18T12:10:51.909Z,13072
2019-03-18T12:12:01.850Z,11856
2019-03-18T12:13:11.543Z,11932
2019-03-18T12:14:21.274Z,11792
2019-03-18T12:15:31.240Z,12208
2019-03-18T12:16:43.907Z,14160
2019-03-18T12:17:53.902Z,16212
2019-03-18T12:19:03.644Z,17008
2019-03-18T12:20:26.082Z,84032
2019-03-18T12:21:35.664Z,27840
2019-03-18T12:22:45.619Z,83168
2019-03-18T12:23:55.604Z,84576
2019-03-18T12:25:05.592Z,85248
2019-03-18T12:26:15.563Z,91648
2019-03-18T12:27:25.008Z,17280
2019-03-18T12:28:34.962Z,11120
2019-03-18T12:29:44.932Z,9472
2019-03-18T12:30:54.904Z,8368
2019-03-18T12:32:04.359Z,7940
2019-03-18T12:33:14.074Z,9016
2019-03-18T12:34:23.795Z,13248
2019-03-18T12:35:33.769Z,15432
2019-03-18T12:36:43.745Z,17856
2019-03-18T12:37:53.492Z,80480
2019-03-18T12:39:03.364Z,95360
2019-03-18T12:40:13.406Z,92576
2019-03-18T12:41:23.381Z,96608
2019-03-18T12:42:33.343Z,97664
2019-03-18T12:43:43.287Z,100256
2019-03-18T12:44:53.003Z,104416
2019-03-18T12:46:02.724Z,101504
2019-03-18T12:47:12.708Z,98080
2019-03-18T12:48:22.673Z,97792
2019-03-18T12:49:32.390Z,90336
2019-03-18T12:51:02.167Z,103392
2019-03-18T12:52:11.634Z,98144
2019-03-18T12:53:21.612Z,61024
2019-03-18T12:54:31.603Z,100128
2019-03-18T12:55:41.788Z,42848
2019-03-18T12:56:51.757Z,103744
2019-03-18T12:58:01.743Z,94848
2019-03-18T12:59:11.438Z,100288
2019-03-18T13:00:21.145Z,95456
2019-03-18T13:01:32.214Z,54080
2019-03-18T13:02:41.412Z,12812
2019-03-18T13:03:51.111Z,9228
2019-03-18T13:05:00.826Z,7980
2019-03-18T13:06:10.796Z,8136
2019-03-18T13:07:20.784Z,9076
2019-03-18T13:08:30.493Z,12172
2019-03-18T13:09:40.458Z,8928
2019-03-18T13:10:50.437Z,5556
2019-03-18T13:12:00.402Z,4036
2019-03-18T13:13:10.364Z,4240
2019-03-18T13:14:20.086Z,7584
2019-03-18T13:15:29.774Z,23424
2019-03-18T13:16:39.482Z,168960
2019-03-18T13:17:51.079Z,105600
2019-03-18T13:19:01.038Z,133408
2019-03-18T13:20:10.998Z,222400
2019-03-18T13:21:20.922Z,92576
2019-03-18T13:22:30.874Z,86240
2019-03-18T13:23:40.824Z,75040
2019-03-18T13:24:50.772Z,15940
2019-03-18T13:26:00.479Z,13604
2019-03-18T13:27:10.428Z,75520
2019-03-18T13:28:20.382Z,36736
2019-03-18T13:29:30.122Z,13980
2019-03-18T13:30:40.095Z,16364
2019-03-18T13:31:49.833Z,27648
2019-03-18T13:32:59.044Z,24608
2019-03-18T13:34:09.009Z,23456
2019-03-18T13:35:18.848Z,17952
2019-03-18T13:36:30.323Z,9708
2019-03-18T13:37:40.047Z,7236
2019-03-18T13:38:49.749Z,5884
2019-03-18T13:39:59.462Z,5648
2019-03-18T13:41:09.415Z,5920
2019-03-18T13:42:19.392Z,6344
2019-03-18T13:43:30.610Z,8268
2019-03-18T13:44:40.559Z,11592
2019-03-18T13:46:02.421Z,11992
2019-03-18T13:47:12.433Z,17984
2019-03-18T13:48:22.402Z,16500
2019-03-18T13:49:32.359Z,21216
2019-03-18T13:50:42.408Z,13116
2019-03-18T13:51:52.366Z,11332
2019-03-18T13:53:02.329Z,10700
2019-03-18T13:54:12.122Z,9916
2019-03-18T13:55:22.101Z,8104
2019-03-18T13:56:32.073Z,6452
2019-03-18T13:57:42.042Z,5484
2019-03-18T13:58:51.749Z,5484
2019-03-18T14:00:01.893Z,5384
2019-03-18T14:01:11.596Z,6068
2019-03-18T14:02:21.567Z,9056
2019-03-18T14:03:31.283Z,23488
2019-03-18T14:04:41.232Z,105120
2019-03-18T14:05:51.201Z,121824
2019-03-18T14:07:01.154Z,112992
2019-03-18T14:08:11.090Z,111488
2019-03-18T14:09:20.808Z,85312
2019-03-18T14:10:30.774Z,28224
2019-03-18T14:11:40.472Z,15188
2019-03-18T14:12:49.922Z,16184
2019-03-18T14:13:59.628Z,17024
2019-03-18T14:15:09.330Z,28576
2019-03-18T14:16:19.284Z,20768
2019-03-18T14:17:29.235Z,27488
2019-03-18T14:18:38.718Z,49216
2019-03-18T14:19:48.693Z,119392
2019-03-18T14:20:58.634Z,99264
2019-03-18T14:22:08.594Z,100416
2019-03-18T14:23:18.559Z,100320
2019-03-18T14:24:28.517Z,90976
2019-03-18T14:25:38.506Z,20736
2019-03-18T14:26:48.469Z,27968
2019-03-18T14:27:58.458Z,12348
2019-03-18T14:29:08.424Z,13188
2019-03-18T14:30:17.886Z,13676
2019-03-18T14:31:27.866Z,12840
2019-03-18T14:32:37.323Z,18272
2019-03-18T14:33:47.013Z,18240
2019-03-18T14:34:57.030Z,15176
2019-03-18T14:36:06.815Z,24096
2019-03-18T14:37:16.920Z,21472
2019-03-18T14:38:26.887Z,78784
2019-03-18T14:39:36.896Z,91904
2019-03-18T14:40:46.608Z,19808
2019-03-18T14:41:56.566Z,23232
2019-03-18T14:43:06.511Z,94880
2019-03-18T14:44:15.964Z,100096
2019-03-18T14:45:25.768Z,105920
2019-03-18T14:46:35.221Z,104864
2019-03-18T14:47:45.177Z,104480
2019-03-18T14:48:55.134Z,101952
2019-03-18T14:50:05.099Z,100576
2019-03-18T14:51:15.049Z,107840
2019-03-18T14:52:24.772Z,97600
2019-03-18T14:53:34.728Z,46912
2019-03-18T14:54:44.213Z,87040
2019-03-18T14:55:54.172Z,78176
2019-03-18T14:57:04.126Z,85440
2019-03-18T14:58:14.074Z,80928
2019-03-18T14:59:23.803Z,70656
2019-03-18T15:00:33.779Z,15480
2019-03-18T15:01:43.488Z,11496
2019-03-18T15:02:53.456Z,14760
2019-03-18T15:04:03.413Z,45856
2019-03-18T15:05:13.119Z,59104
2019-03-18T15:06:23.068Z,74912
2019-03-18T15:07:32.292Z,90624
2019-03-18T15:08:42.014Z,96000
2019-03-18T15:09:51.567Z,91136
2019-03-18T15:11:01.541Z,72704
2019-03-18T15:12:11.277Z,39552
2019-03-18T15:13:33.165Z,93856
2019-03-18T15:14:43.142Z,34848
2019-03-18T15:15:52.855Z,64800
2019-03-18T15:17:02.822Z,77600
2019-03-18T15:18:12.813Z,59712
2019-03-18T15:19:22.782Z,20576
2019-03-18T15:20:32.513Z,24000
2019-03-18T15:21:42.492Z,12448
2019-03-18T15:22:52.497Z,9476
2019-03-18T15:24:02.449Z,11028
2019-03-18T15:25:24.095Z,13880
2019-03-18T15:26:33.827Z,9612
2019-03-18T15:27:43.786Z,8184
2019-03-18T15:28:53.233Z,7104
2019-03-18T15:30:02.931Z,5856
2019-03-18T15:31:12.886Z,4648
2019-03-18T15:32:22.834Z,3800
2019-03-18T15:33:32.532Z,3140
2019-03-18T15:34:42.501Z,2640
2019-03-18T15:35:52.202Z,2248
2019-03-18T15:37:01.919Z,1888
2019-03-18T15:38:11.618Z,1664
2019-03-18T15:39:21.598Z,1556
2019-03-18T15:40:31.638Z,1484
2019-03-18T15:41:41.592Z,1504
2019-03-18T15:42:51.577Z,2120
2019-03-18T15:44:01.575Z,3716
2019-03-18T15:45:11.533Z,4192
2019-03-18T15:46:21.500Z,4440
2019-03-18T15:47:31.190Z,5144
2019-03-18T15:48:41.140Z,11132
2019-03-18T15:49:50.826Z,7276
2019-03-18T15:51:00.767Z,10348
2019-03-18T15:52:18.359Z,65376
2019-03-18T15:53:28.312Z,70656
2019-03-18T15:54:38.288Z,72064